sensor_id;sensor_type;location;lat;lon;timestamp;P1;durP1;ratioP1;P2;durP2;ratioP2
52974;SDS011;38839;45.186;5.720;2023-09-19T00:01:28;3.55;;;1.52;;
52974;SDS011;38839;45.186;5.720;2023-09-19T00:03:55;8.80;;;1.73;;
52974;SDS011;38839;45.186;5.720;2023-09-19T00:06:22;6.93;;;1.75;;
52974;SDS011;38839;45.186;5.720;2023-09-19T00:08:51;1.30;;;1.20;;
52974;SDS011;38839;45.186;5.720;2023-09-19T00:11:17;4.18;;;1.50;;
52974;SDS011;38839;45.186;5.720;2023-09-19T00:13:43;3.15;;;1.50;;
52974;SDS011;38839;45.186;5.720;2023-09-19T00:16:11;3.45;;;1.60;;
52974;SDS011;38839;45.186;5.720;2023-09-19T00:18:37;3.13;;;1.75;;
52974;SDS011;38839;45.186;5.720;2023-09-19T00:21:03;4.50;;;1.88;;
52974;SDS011;38839;45.186;5.720;2023-09-19T00:23:32;4.45;;;1.80;;
52974;SDS011;38839;45.186;5.720;2023-09-19T00:26:01;3.70;;;1.80;;
52974;SDS011;38839;45.186;5.720;2023-09-19T00:28:27;5.30;;;2.50;;
52974;SDS011;38839;45.186;5.720;2023-09-19T00:30:52;3.30;;;1.88;;
52974;SDS011;38839;45.186;5.720;2023-09-19T00:33:20;3.95;;;1.85;;
52974;SDS011;38839;45.186;5.720;2023-09-19T00:38:15;4.15;;;2.38;;
52974;SDS011;38839;45.186;5.720;2023-09-19T00:40:45;3.45;;;2.38;;
52974;SDS011;38839;45.186;5.720;2023-09-19T00:43:11;5.45;;;2.90;;
52974;SDS011;38839;45.186;5.720;2023-09-19T00:45:37;4.72;;;2.90;;
52974;SDS011;38839;45.186;5.720;2023-09-19T00:48:07;5.07;;;2.85;;
52974;SDS011;38839;45.186;5.720;2023-09-19T00:50:34;6.15;;;3.50;;
52974;SDS011;38839;45.186;5.720;2023-09-19T00:53:00;3.90;;;3.50;;
52974;SDS011;38839;45.186;5.720;2023-09-19T00:55:25;6.55;;;3.22;;
52974;SDS011;38839;45.186;5.720;2023-09-19T00:57:55;5.50;;;3.00;;
52974;SDS011;38839;45.186;5.720;2023-09-19T01:00:21;3.90;;;3.10;;
52974;SDS011;38839;45.186;5.720;2023-09-19T01:02:48;5.57;;;3.20;;
52974;SDS011;38839;45.186;5.720;2023-09-19T01:05:13;8.20;;;3.15;;
52974;SDS011;38839;45.186;5.720;2023-09-19T01:07:39;5.32;;;3.83;;
52974;SDS011;38839;45.186;5.720;2023-09-19T01:10:11;5.45;;;3.03;;
52974;SDS011;38839;45.186;5.720;2023-09-19T01:23:23;6.53;;;4.18;;
52974;SDS011;38839;45.186;5.720;2023-09-19T01:29:01;8.57;;;3.80;;
52974;SDS011;38839;45.186;5.720;2023-09-19T01:31:50;6.75;;;3.67;;
52974;SDS011;38839;45.186;5.720;2023-09-19T01:34:19;4.93;;;3.40;;
52974;SDS011;38839;45.186;5.720;2023-09-19T01:36:45;6.85;;;3.22;;
52974;SDS011;38839;45.186;5.720;2023-09-19T01:39:11;8.63;;;3.33;;
52974;SDS011;38839;45.186;5.720;2023-09-19T01:41:41;7.95;;;3.28;;
52974;SDS011;38839;45.186;5.720;2023-09-19T01:44:31;5.63;;;3.05;;
52974;SDS011;38839;45.186;5.720;2023-09-19T01:47:28;4.65;;;2.88;;
52974;SDS011;38839;45.186;5.720;2023-09-19T01:50:38;7.05;;;3.35;;
52974;SDS011;38839;45.186;5.720;2023-09-19T01:55:55;6.68;;;3.70;;
52974;SDS011;38839;45.186;5.720;2023-09-19T01:58:56;7.05;;;4.03;;
52974;SDS011;38839;45.186;5.720;2023-09-19T02:01:20;6.13;;;3.38;;
52974;SDS011;38839;45.186;5.720;2023-09-19T02:03:49;6.20;;;3.33;;
52974;SDS011;38839;45.186;5.720;2023-09-19T02:06:15;6.13;;;3.42;;
52974;SDS011;38839;45.186;5.720;2023-09-19T02:08:42;5.40;;;3.30;;
52974;SDS011;38839;45.186;5.720;2023-09-19T02:11:08;6.60;;;3.83;;
52974;SDS011;38839;45.186;5.720;2023-09-19T02:13:33;5.88;;;4.03;;
52974;SDS011;38839;45.186;5.720;2023-09-19T02:15:59;5.30;;;3.50;;
52974;SDS011;38839;45.186;5.720;2023-09-19T02:18:24;8.32;;;4.07;;
52974;SDS011;38839;45.186;5.720;2023-09-19T02:20:53;4.88;;;3.42;;
52974;SDS011;38839;45.186;5.720;2023-09-19T02:23:20;6.55;;;3.67;;
52974;SDS011;38839;45.186;5.720;2023-09-19T02:25:52;4.93;;;3.42;;
52974;SDS011;38839;45.186;5.720;2023-09-19T02:28:25;7.80;;;3.50;;
52974;SDS011;38839;45.186;5.720;2023-09-19T02:30:55;8.85;;;3.67;;
52974;SDS011;38839;45.186;5.720;2023-09-19T02:33:21;7.18;;;3.63;;
52974;SDS011;38839;45.186;5.720;2023-09-19T02:35:46;3.92;;;3.08;;
52974;SDS011;38839;45.186;5.720;2023-09-19T02:38:12;4.95;;;3.20;;
52974;SDS011;38839;45.186;5.720;2023-09-19T02:40:38;5.05;;;3.15;;
52974;SDS011;38839;45.186;5.720;2023-09-19T02:43:03;3.80;;;3.08;;
52974;SDS011;38839;45.186;5.720;2023-09-19T02:45:30;4.35;;;3.50;;
52974;SDS011;38839;45.186;5.720;2023-09-19T02:47:56;4.47;;;3.30;;
52974;SDS011;38839;45.186;5.720;2023-09-19T02:50:22;5.60;;;3.03;;
52974;SDS011;38839;45.186;5.720;2023-09-19T02:52:47;4.82;;;3.08;;
52974;SDS011;38839;45.186;5.720;2023-09-19T02:55:14;4.20;;;2.92;;
52974;SDS011;38839;45.186;5.720;2023-09-19T02:57:52;4.07;;;3.13;;
52974;SDS011;38839;45.186;5.720;2023-09-19T03:00:21;4.65;;;3.20;;
52974;SDS011;38839;45.186;5.720;2023-09-19T03:02:52;4.55;;;3.15;;
52974;SDS011;38839;45.186;5.720;2023-09-19T03:05:20;7.13;;;2.85;;
52974;SDS011;38839;45.186;5.720;2023-09-19T03:07:47;6.57;;;3.10;;
52974;SDS011;38839;45.186;5.720;2023-09-19T03:12:41;5.18;;;2.90;;
52974;SDS011;38839;45.186;5.720;2023-09-19T03:15:07;5.40;;;2.67;;
52974;SDS011;38839;45.186;5.720;2023-09-19T03:17:33;4.35;;;2.70;;
52974;SDS011;38839;45.186;5.720;2023-09-19T03:19:59;4.05;;;2.65;;
52974;SDS011;38839;45.186;5.720;2023-09-19T03:22:26;4.05;;;2.75;;
52974;SDS011;38839;45.186;5.720;2023-09-19T03:24:52;4.00;;;2.38;;
52974;SDS011;38839;45.186;5.720;2023-09-19T03:27:18;5.38;;;2.63;;
52974;SDS011;38839;45.186;5.720;2023-09-19T03:29:43;3.13;;;2.22;;
52974;SDS011;38839;45.186;5.720;2023-09-19T03:32:09;5.50;;;2.83;;
52974;SDS011;38839;45.186;5.720;2023-09-19T03:34:37;3.95;;;2.90;;
52974;SDS011;38839;45.186;5.720;2023-09-19T03:37:05;4.63;;;2.95;;
52974;SDS011;38839;45.186;5.720;2023-09-19T03:39:31;3.72;;;2.50;;
52974;SDS011;38839;45.186;5.720;2023-09-19T03:41:57;3.67;;;2.22;;
52974;SDS011;38839;45.186;5.720;2023-09-19T03:44:22;4.38;;;2.55;;
52974;SDS011;38839;45.186;5.720;2023-09-19T03:46:48;4.47;;;2.90;;
52974;SDS011;38839;45.186;5.720;2023-09-19T03:49:13;4.10;;;2.90;;
52974;SDS011;38839;45.186;5.720;2023-09-19T03:51:39;5.72;;;2.88;;
52974;SDS011;38839;45.186;5.720;2023-09-19T03:54:06;6.20;;;2.70;;
52974;SDS011;38839;45.186;5.720;2023-09-19T03:56:32;4.13;;;2.85;;
52974;SDS011;38839;45.186;5.720;2023-09-19T03:58:58;5.20;;;2.90;;
52974;SDS011;38839;45.186;5.720;2023-09-19T04:01:23;3.70;;;2.60;;
52974;SDS011;38839;45.186;5.720;2023-09-19T04:03:49;5.25;;;3.05;;
52974;SDS011;38839;45.186;5.720;2023-09-19T04:06:16;3.97;;;3.30;;
52974;SDS011;38839;45.186;5.720;2023-09-19T04:08:42;6.05;;;3.17;;
52974;SDS011;38839;45.186;5.720;2023-09-19T04:11:09;8.98;;;2.80;;
52974;SDS011;38839;45.186;5.720;2023-09-19T04:13:35;7.95;;;3.30;;
52974;SDS011;38839;45.186;5.720;2023-09-19T04:16:01;5.20;;;3.13;;
52974;SDS011;38839;45.186;5.720;2023-09-19T04:18:27;7.70;;;3.17;;
52974;SDS011;38839;45.186;5.720;2023-09-19T04:20:56;4.50;;;2.60;;
52974;SDS011;38839;45.186;5.720;2023-09-19T04:23:21;4.05;;;3.40;;
52974;SDS011;38839;45.186;5.720;2023-09-19T04:25:46;5.55;;;3.28;;
52974;SDS011;38839;45.186;5.720;2023-09-19T04:28:13;6.70;;;3.22;;
52974;SDS011;38839;45.186;5.720;2023-09-19T04:30:38;7.97;;;3.80;;
52974;SDS011;38839;45.186;5.720;2023-09-19T04:33:07;9.52;;;3.35;;
52974;SDS011;38839;45.186;5.720;2023-09-19T04:35:33;8.65;;;3.70;;
52974;SDS011;38839;45.186;5.720;2023-09-19T04:37:59;5.65;;;3.20;;
52974;SDS011;38839;45.186;5.720;2023-09-19T04:40:24;6.90;;;3.42;;
52974;SDS011;38839;45.186;5.720;2023-09-19T04:42:54;4.55;;;3.00;;
52974;SDS011;38839;45.186;5.720;2023-09-19T04:45:23;5.57;;;2.80;;
52974;SDS011;38839;45.186;5.720;2023-09-19T04:47:52;9.20;;;2.80;;
52974;SDS011;38839;45.186;5.720;2023-09-19T04:50:18;4.78;;;2.85;;
52974;SDS011;38839;45.186;5.720;2023-09-19T04:52:44;8.75;;;2.75;;
52974;SDS011;38839;45.186;5.720;2023-09-19T04:55:10;4.88;;;2.65;;
52974;SDS011;38839;45.186;5.720;2023-09-19T04:57:41;4.90;;;2.83;;
52974;SDS011;38839;45.186;5.720;2023-09-19T05:00:06;5.47;;;2.72;;
52974;SDS011;38839;45.186;5.720;2023-09-19T05:02:37;5.55;;;2.80;;
52974;SDS011;38839;45.186;5.720;2023-09-19T05:05:02;3.67;;;2.50;;
52974;SDS011;38839;45.186;5.720;2023-09-19T05:07:29;5.82;;;2.55;;
52974;SDS011;38839;45.186;5.720;2023-09-19T05:09:55;3.47;;;2.70;;
52974;SDS011;38839;45.186;5.720;2023-09-19T05:12:20;4.72;;;2.40;;
52974;SDS011;38839;45.186;5.720;2023-09-19T05:14:46;4.57;;;2.63;;
52974;SDS011;38839;45.186;5.720;2023-09-19T05:17:12;4.30;;;2.25;;
52974;SDS011;38839;45.186;5.720;2023-09-19T05:19:38;3.28;;;2.65;;
52974;SDS011;38839;45.186;5.720;2023-09-19T05:22:04;5.78;;;2.55;;
52974;SDS011;38839;45.186;5.720;2023-09-19T05:24:29;6.88;;;2.45;;
52974;SDS011;38839;45.186;5.720;2023-09-19T05:26:55;6.25;;;2.40;;
52974;SDS011;38839;45.186;5.720;2023-09-19T05:29:22;4.70;;;2.30;;
52974;SDS011;38839;45.186;5.720;2023-09-19T05:31:47;3.42;;;1.83;;
52974;SDS011;38839;45.186;5.720;2023-09-19T05:34:14;3.70;;;1.90;;
52974;SDS011;38839;45.186;5.720;2023-09-19T05:36:40;4.78;;;2.85;;
52974;SDS011;38839;45.186;5.720;2023-09-19T05:39:05;8.27;;;3.25;;
52974;SDS011;38839;45.186;5.720;2023-09-19T05:41:34;4.95;;;3.65;;
52974;SDS011;38839;45.186;5.720;2023-09-19T05:44:01;5.70;;;3.65;;
52974;SDS011;38839;45.186;5.720;2023-09-19T05:46:27;5.00;;;3.20;;
52974;SDS011;38839;45.186;5.720;2023-09-19T05:48:54;7.40;;;3.38;;
52974;SDS011;38839;45.186;5.720;2023-09-19T05:51:21;5.28;;;3.15;;
52974;SDS011;38839;45.186;5.720;2023-09-19T05:53:47;9.10;;;4.40;;
52974;SDS011;38839;45.186;5.720;2023-09-19T05:56:13;5.68;;;4.32;;
52974;SDS011;38839;45.186;5.720;2023-09-19T05:58:40;26.23;;;16.50;;
52974;SDS011;38839;45.186;5.720;2023-09-19T06:01:09;8.90;;;4.32;;
52974;SDS011;38839;45.186;5.720;2023-09-19T06:03:35;8.00;;;3.50;;
52974;SDS011;38839;45.186;5.720;2023-09-19T06:06:01;4.68;;;3.17;;
52974;SDS011;38839;45.186;5.720;2023-09-19T06:08:26;6.15;;;3.47;;
52974;SDS011;38839;45.186;5.720;2023-09-19T06:10:53;7.00;;;3.22;;
52974;SDS011;38839;45.186;5.720;2023-09-19T06:13:19;7.30;;;3.30;;
52974;SDS011;38839;45.186;5.720;2023-09-19T06:15:45;10.38;;;3.58;;
52974;SDS011;38839;45.186;5.720;2023-09-19T06:18:11;5.80;;;3.33;;
52974;SDS011;38839;45.186;5.720;2023-09-19T06:20:42;5.45;;;3.30;;
52974;SDS011;38839;45.186;5.720;2023-09-19T06:23:09;5.15;;;3.13;;
52974;SDS011;38839;45.186;5.720;2023-09-19T06:25:35;5.18;;;3.38;;
52974;SDS011;38839;45.186;5.720;2023-09-19T06:28:00;3.88;;;2.42;;
52974;SDS011;38839;45.186;5.720;2023-09-19T06:30:29;5.18;;;2.50;;
52974;SDS011;38839;45.186;5.720;2023-09-19T06:32:58;2.97;;;2.13;;
52974;SDS011;38839;45.186;5.720;2023-09-19T06:35:25;9.05;;;2.22;;
52974;SDS011;38839;45.186;5.720;2023-09-19T06:37:51;3.70;;;2.08;;
52974;SDS011;38839;45.186;5.720;2023-09-19T06:40:17;3.78;;;1.83;;
52974;SDS011;38839;45.186;5.720;2023-09-19T06:42:45;5.85;;;1.92;;
52974;SDS011;38839;45.186;5.720;2023-09-19T06:45:13;5.22;;;2.05;;
52974;SDS011;38839;45.186;5.720;2023-09-19T06:47:43;4.35;;;2.33;;
52974;SDS011;38839;45.186;5.720;2023-09-19T06:50:09;5.47;;;2.55;;
52974;SDS011;38839;45.186;5.720;2023-09-19T06:52:39;4.10;;;1.98;;
52974;SDS011;38839;45.186;5.720;2023-09-19T06:55:07;2.90;;;2.33;;
52974;SDS011;38839;45.186;5.720;2023-09-19T06:57:34;6.05;;;2.20;;
52974;SDS011;38839;45.186;5.720;2023-09-19T07:00:00;4.53;;;2.30;;
52974;SDS011;38839;45.186;5.720;2023-09-19T07:02:26;3.63;;;2.28;;
52974;SDS011;38839;45.186;5.720;2023-09-19T07:04:52;5.72;;;2.63;;
52974;SDS011;38839;45.186;5.720;2023-09-19T07:07:17;6.55;;;2.90;;
52974;SDS011;38839;45.186;5.720;2023-09-19T07:09:43;3.97;;;2.67;;
52974;SDS011;38839;45.186;5.720;2023-09-19T07:12:08;7.03;;;2.65;;
52974;SDS011;38839;45.186;5.720;2023-09-19T07:14:34;5.95;;;2.67;;
52974;SDS011;38839;45.186;5.720;2023-09-19T07:16:59;4.10;;;2.33;;
52974;SDS011;38839;45.186;5.720;2023-09-19T07:21:56;6.07;;;2.95;;
52974;SDS011;38839;45.186;5.720;2023-09-19T07:24:24;4.65;;;2.97;;
52974;SDS011;38839;45.186;5.720;2023-09-19T07:26:51;6.25;;;3.38;;
52974;SDS011;38839;45.186;5.720;2023-09-19T07:29:17;4.47;;;2.72;;
52974;SDS011;38839;45.186;5.720;2023-09-19T07:31:42;5.90;;;2.83;;
52974;SDS011;38839;45.186;5.720;2023-09-19T07:34:09;5.78;;;2.70;;
52974;SDS011;38839;45.186;5.720;2023-09-19T07:36:35;3.38;;;2.70;;
52974;SDS011;38839;45.186;5.720;2023-09-19T07:39:02;6.22;;;2.40;;
52974;SDS011;38839;45.186;5.720;2023-09-19T07:41:31;5.85;;;2.63;;
52974;SDS011;38839;45.186;5.720;2023-09-19T07:43:57;7.90;;;2.88;;
52974;SDS011;38839;45.186;5.720;2023-09-19T07:46:23;4.18;;;2.40;;
52974;SDS011;38839;45.186;5.720;2023-09-19T07:48:49;7.75;;;1.98;;
52974;SDS011;38839;45.186;5.720;2023-09-19T07:51:15;4.28;;;2.70;;
52974;SDS011;38839;45.186;5.720;2023-09-19T07:53:41;5.95;;;2.28;;
52974;SDS011;38839;45.186;5.720;2023-09-19T07:56:07;6.05;;;2.35;;
52974;SDS011;38839;45.186;5.720;2023-09-19T07:58:35;6.20;;;2.78;;
52974;SDS011;38839;45.186;5.720;2023-09-19T08:01:08;5.60;;;2.22;;
52974;SDS011;38839;45.186;5.720;2023-09-19T08:03:35;5.57;;;3.22;;
52974;SDS011;38839;45.186;5.720;2023-09-19T08:06:05;4.75;;;2.22;;
52974;SDS011;38839;45.186;5.720;2023-09-19T08:08:32;4.25;;;1.80;;
52974;SDS011;38839;45.186;5.720;2023-09-19T08:10:59;4.00;;;1.95;;
52974;SDS011;38839;45.186;5.720;2023-09-19T08:13:25;5.22;;;2.30;;
52974;SDS011;38839;45.186;5.720;2023-09-19T08:15:51;4.30;;;1.92;;
52974;SDS011;38839;45.186;5.720;2023-09-19T08:18:18;5.28;;;1.90;;
52974;SDS011;38839;45.186;5.720;2023-09-19T08:20:48;5.32;;;2.05;;
52974;SDS011;38839;45.186;5.720;2023-09-19T08:23:15;4.40;;;1.90;;
52974;SDS011;38839;45.186;5.720;2023-09-19T08:25:43;3.42;;;2.30;;
52974;SDS011;38839;45.186;5.720;2023-09-19T08:28:08;3.20;;;2.13;;
52974;SDS011;38839;45.186;5.720;2023-09-19T08:30:36;3.97;;;2.10;;
52974;SDS011;38839;45.186;5.720;2023-09-19T08:33:06;2.78;;;1.90;;
52974;SDS011;38839;45.186;5.720;2023-09-19T08:35:33;5.93;;;1.83;;
52974;SDS011;38839;45.186;5.720;2023-09-19T08:38:00;2.95;;;1.90;;
52974;SDS011;38839;45.186;5.720;2023-09-19T08:40:29;2.25;;;2.00;;
52974;SDS011;38839;45.186;5.720;2023-09-19T08:42:58;3.00;;;1.73;;
52974;SDS011;38839;45.186;5.720;2023-09-19T08:45:25;4.25;;;2.30;;
52974;SDS011;38839;45.186;5.720;2023-09-19T08:50:36;3.10;;;2.17;;
52974;SDS011;38839;45.186;5.720;2023-09-19T08:53:10;5.10;;;2.58;;
52974;SDS011;38839;45.186;5.720;2023-09-19T08:55:38;3.75;;;2.22;;
52974;SDS011;38839;45.186;5.720;2023-09-19T08:58:06;3.22;;;2.10;;
52974;SDS011;38839;45.186;5.720;2023-09-19T09:00:35;5.43;;;2.38;;
52974;SDS011;38839;45.186;5.720;2023-09-19T09:03:01;2.72;;;2.00;;
52974;SDS011;38839;45.186;5.720;2023-09-19T09:05:31;5.22;;;2.13;;
52974;SDS011;38839;45.186;5.720;2023-09-19T09:07:58;2.78;;;1.98;;
52974;SDS011;38839;45.186;5.720;2023-09-19T09:10:24;3.63;;;2.30;;
52974;SDS011;38839;45.186;5.720;2023-09-19T09:12:51;4.00;;;1.90;;
52974;SDS011;38839;45.186;5.720;2023-09-19T09:15:18;3.42;;;1.95;;
52974;SDS011;38839;45.186;5.720;2023-09-19T09:17:49;6.30;;;2.70;;
52974;SDS011;38839;45.186;5.720;2023-09-19T09:25:05;4.32;;;2.78;;
52974;SDS011;38839;45.186;5.720;2023-09-19T09:27:31;3.70;;;2.78;;
52974;SDS011;38839;45.186;5.720;2023-09-19T09:29:57;6.65;;;3.17;;
52974;SDS011;38839;45.186;5.720;2023-09-19T09:32:30;7.07;;;2.83;;
52974;SDS011;38839;45.186;5.720;2023-09-19T09:34:59;5.03;;;3.50;;
52974;SDS011;38839;45.186;5.720;2023-09-19T09:37:25;7.18;;;4.32;;
52974;SDS011;38839;45.186;5.720;2023-09-19T09:40:02;3.78;;;2.83;;
52974;SDS011;38839;45.186;5.720;2023-09-19T09:42:40;4.82;;;2.92;;
52974;SDS011;38839;45.186;5.720;2023-09-19T09:47:41;4.72;;;2.55;;
52974;SDS011;38839;45.186;5.720;2023-09-19T09:50:30;3.70;;;2.33;;
52974;SDS011;38839;45.186;5.720;2023-09-19T09:53:21;2.80;;;1.67;;
52974;SDS011;38839;45.186;5.720;2023-09-19T09:58:25;4.22;;;2.20;;
52974;SDS011;38839;45.186;5.720;2023-09-19T10:00:57;4.53;;;2.40;;
52974;SDS011;38839;45.186;5.720;2023-09-19T10:03:34;4.32;;;1.95;;
52974;SDS011;38839;45.186;5.720;2023-09-19T10:06:11;3.75;;;2.00;;
52974;SDS011;38839;45.186;5.720;2023-09-19T10:09:03;3.63;;;1.77;;
52974;SDS011;38839;45.186;5.720;2023-09-19T10:11:57;3.30;;;2.10;;
52974;SDS011;38839;45.186;5.720;2023-09-19T10:14:35;2.83;;;1.98;;
52974;SDS011;38839;45.186;5.720;2023-09-19T10:17:04;2.45;;;1.90;;
52974;SDS011;38839;45.186;5.720;2023-09-19T10:19:37;7.00;;;2.80;;
52974;SDS011;38839;45.186;5.720;2023-09-19T10:22:11;6.40;;;2.60;;
52974;SDS011;38839;45.186;5.720;2023-09-19T10:24:39;2.80;;;2.50;;
52974;SDS011;38839;45.186;5.720;2023-09-19T10:27:06;2.97;;;2.25;;
52974;SDS011;38839;45.186;5.720;2023-09-19T10:29:34;3.47;;;2.08;;
52974;SDS011;38839;45.186;5.720;2023-09-19T10:32:04;3.75;;;2.00;;
52974;SDS011;38839;45.186;5.720;2023-09-19T10:34:35;2.17;;;2.00;;
52974;SDS011;38839;45.186;5.720;2023-09-19T10:37:02;3.08;;;2.13;;
52974;SDS011;38839;45.186;5.720;2023-09-19T10:39:34;3.97;;;2.20;;
52974;SDS011;38839;45.186;5.720;2023-09-19T10:42:03;4.63;;;2.55;;
52974;SDS011;38839;45.186;5.720;2023-09-19T10:44:34;3.30;;;2.40;;
52974;SDS011;38839;45.186;5.720;2023-09-19T10:47:05;2.20;;;2.00;;
52974;SDS011;38839;45.186;5.720;2023-09-19T10:49:32;3.42;;;2.30;;
52974;SDS011;38839;45.186;5.720;2023-09-19T10:51:59;6.72;;;2.58;;
52974;SDS011;38839;45.186;5.720;2023-09-19T10:54:27;2.88;;;2.17;;
52974;SDS011;38839;45.186;5.720;2023-09-19T10:56:57;2.70;;;2.08;;
52974;SDS011;38839;45.186;5.720;2023-09-19T10:59:24;4.88;;;2.50;;
52974;SDS011;38839;45.186;5.720;2023-09-19T11:01:55;2.63;;;2.42;;
52974;SDS011;38839;45.186;5.720;2023-09-19T11:07:01;3.67;;;1.92;;
52974;SDS011;38839;45.186;5.720;2023-09-19T11:15:01;2.35;;;2.10;;
52974;SDS011;38839;45.186;5.720;2023-09-19T11:17:33;4.25;;;2.10;;
52974;SDS011;38839;45.186;5.720;2023-09-19T11:30:39;3.03;;;1.75;;
52974;SDS011;38839;45.186;5.720;2023-09-19T11:33:18;2.67;;;1.83;;
52974;SDS011;38839;45.186;5.720;2023-09-19T11:36:12;2.63;;;1.90;;
52974;SDS011;38839;45.186;5.720;2023-09-19T11:46:31;2.03;;;1.65;;
52974;SDS011;38839;45.186;5.720;2023-09-19T11:49:07;2.70;;;1.67;;
52974;SDS011;38839;45.186;5.720;2023-09-19T11:51:40;2.28;;;1.50;;
52974;SDS011;38839;45.186;5.720;2023-09-19T11:54:10;2.17;;;1.40;;
52974;SDS011;38839;45.186;5.720;2023-09-19T11:56:54;2.33;;;1.52;;
52974;SDS011;38839;45.186;5.720;2023-09-19T11:59:23;1.98;;;1.40;;
52974;SDS011;38839;45.186;5.720;2023-09-19T12:01:53;1.20;;;1.10;;
52974;SDS011;38839;45.186;5.720;2023-09-19T12:04:44;2.38;;;1.20;;
52974;SDS011;38839;45.186;5.720;2023-09-19T12:12:20;1.10;;;1.00;;
52974;SDS011;38839;45.186;5.720;2023-09-19T12:14:52;1.77;;;1.33;;
52974;SDS011;38839;45.186;5.720;2023-09-19T12:17:18;2.50;;;1.00;;
52974;SDS011;38839;45.186;5.720;2023-09-19T12:19:55;1.33;;;1.23;;
52974;SDS011;38839;45.186;5.720;2023-09-19T12:22:21;1.92;;;0.90;;
52974;SDS011;38839;45.186;5.720;2023-09-19T12:24:47;2.67;;;1.15;;
52974;SDS011;38839;45.186;5.720;2023-09-19T12:27:13;1.17;;;1.08;;
52974;SDS011;38839;45.186;5.720;2023-09-19T12:29:42;2.22;;;0.90;;
52974;SDS011;38839;45.186;5.720;2023-09-19T12:32:16;3.40;;;0.90;;
52974;SDS011;38839;45.186;5.720;2023-09-19T12:34:52;1.88;;;1.05;;
52974;SDS011;38839;45.186;5.720;2023-09-19T12:37:19;2.92;;;0.88;;
52974;SDS011;38839;45.186;5.720;2023-09-19T12:39:48;0.63;;;0.60;;
52974;SDS011;38839;45.186;5.720;2023-09-19T12:42:20;0.60;;;0.40;;
52974;SDS011;38839;45.186;5.720;2023-09-19T12:44:48;1.90;;;0.50;;
52974;SDS011;38839;45.186;5.720;2023-09-19T12:47:20;0.40;;;0.40;;
52974;SDS011;38839;45.186;5.720;2023-09-19T12:52:44;0.85;;;0.50;;
52974;SDS011;38839;45.186;5.720;2023-09-19T12:58:07;1.13;;;0.50;;
52974;SDS011;38839;45.186;5.720;2023-09-19T13:00:44;1.27;;;0.77;;
52974;SDS011;38839;45.186;5.720;2023-09-19T13:03:11;0.63;;;0.60;;
52974;SDS011;38839;45.186;5.720;2023-09-19T13:06:01;3.75;;;0.73;;
52974;SDS011;38839;45.186;5.720;2023-09-19T13:11:07;1.15;;;0.47;;
52974;SDS011;38839;45.186;5.720;2023-09-19T13:13:35;0.65;;;0.47;;
52974;SDS011;38839;45.186;5.720;2023-09-19T13:16:02;1.85;;;0.90;;
52974;SDS011;38839;45.186;5.720;2023-09-19T13:18:46;0.70;;;0.70;;
52974;SDS011;38839;45.186;5.720;2023-09-19T13:21:16;1.10;;;0.70;;
52974;SDS011;38839;45.186;5.720;2023-09-19T13:23:52;1.85;;;1.13;;
52974;SDS011;38839;45.186;5.720;2023-09-19T13:26:24;3.38;;;0.80;;
52974;SDS011;38839;45.186;5.720;2023-09-19T13:28:53;0.65;;;0.60;;
52974;SDS011;38839;45.186;5.720;2023-09-19T13:31:19;1.25;;;0.93;;
52974;SDS011;38839;45.186;5.720;2023-09-19T13:33:44;2.05;;;0.60;;
52974;SDS011;38839;45.186;5.720;2023-09-19T13:36:13;0.47;;;0.40;;
52974;SDS011;38839;45.186;5.720;2023-09-19T13:38:40;1.20;;;1.10;;
52974;SDS011;38839;45.186;5.720;2023-09-19T13:41:09;1.60;;;0.50;;
52974;SDS011;38839;45.186;5.720;2023-09-19T13:43:36;1.10;;;0.70;;
52974;SDS011;38839;45.186;5.720;2023-09-19T13:46:02;1.27;;;0.80;;
52974;SDS011;38839;45.186;5.720;2023-09-19T13:48:27;1.00;;;0.73;;
52974;SDS011;38839;45.186;5.720;2023-09-19T13:50:55;0.65;;;0.50;;
52974;SDS011;38839;45.186;5.720;2023-09-19T13:53:21;0.60;;;0.50;;
52974;SDS011;38839;45.186;5.720;2023-09-19T13:55:47;1.30;;;0.60;;
52974;SDS011;38839;45.186;5.720;2023-09-19T13:58:13;2.17;;;0.60;;
52974;SDS011;38839;45.186;5.720;2023-09-19T14:00:39;1.00;;;0.52;;
52974;SDS011;38839;45.186;5.720;2023-09-19T14:03:04;1.20;;;0.70;;
52974;SDS011;38839;45.186;5.720;2023-09-19T14:05:31;1.92;;;0.82;;
52974;SDS011;38839;45.186;5.720;2023-09-19T14:07:56;2.25;;;0.65;;
52974;SDS011;38839;45.186;5.720;2023-09-19T14:10:24;0.93;;;0.60;;
52974;SDS011;38839;45.186;5.720;2023-09-19T14:12:52;1.40;;;0.60;;
52974;SDS011;38839;45.186;5.720;2023-09-19T14:15:18;1.75;;;0.70;;
52974;SDS011;38839;45.186;5.720;2023-09-19T14:17:43;0.95;;;0.80;;
52974;SDS011;38839;45.186;5.720;2023-09-19T14:20:11;0.70;;;0.60;;
52974;SDS011;38839;45.186;5.720;2023-09-19T14:22:37;1.75;;;1.08;;
52974;SDS011;38839;45.186;5.720;2023-09-19T14:25:03;1.10;;;0.80;;
52974;SDS011;38839;45.186;5.720;2023-09-19T14:27:30;1.00;;;0.60;;
52974;SDS011;38839;45.186;5.720;2023-09-19T14:29:55;2.45;;;0.80;;
52974;SDS011;38839;45.186;5.720;2023-09-19T14:32:22;1.02;;;0.80;;
52974;SDS011;38839;45.186;5.720;2023-09-19T14:34:48;1.42;;;0.73;;
52974;SDS011;38839;45.186;5.720;2023-09-19T14:37:13;2.45;;;0.85;;
52974;SDS011;38839;45.186;5.720;2023-09-19T14:39:41;8.90;;;2.42;;
52974;SDS011;38839;45.186;5.720;2023-09-19T14:44:35;3.75;;;1.05;;
52974;SDS011;38839;45.186;5.720;2023-09-19T14:47:02;2.20;;;0.80;;
52974;SDS011;38839;45.186;5.720;2023-09-19T14:49:29;3.25;;;1.00;;
52974;SDS011;38839;45.186;5.720;2023-09-19T14:51:55;2.00;;;0.80;;
52974;SDS011;38839;45.186;5.720;2023-09-19T14:54:20;1.10;;;0.70;;
52974;SDS011;38839;45.186;5.720;2023-09-19T14:56:46;3.70;;;1.10;;
52974;SDS011;38839;45.186;5.720;2023-09-19T14:59:18;0.95;;;0.80;;
52974;SDS011;38839;45.186;5.720;2023-09-19T15:01:45;1.42;;;0.70;;
52974;SDS011;38839;45.186;5.720;2023-09-19T15:04:10;2.35;;;0.77;;
52974;SDS011;38839;45.186;5.720;2023-09-19T15:06:36;1.55;;;0.88;;
52974;SDS011;38839;45.186;5.720;2023-09-19T15:09:02;1.85;;;0.73;;
52974;SDS011;38839;45.186;5.720;2023-09-19T15:11:29;1.58;;;0.70;;
52974;SDS011;38839;45.186;5.720;2023-09-19T15:13:55;1.15;;;0.82;;
52974;SDS011;38839;45.186;5.720;2023-09-19T15:16:21;1.33;;;0.90;;
52974;SDS011;38839;45.186;5.720;2023-09-19T15:18:47;2.47;;;0.90;;
52974;SDS011;38839;45.186;5.720;2023-09-19T15:21:13;1.70;;;0.73;;
52974;SDS011;38839;45.186;5.720;2023-09-19T15:23:40;2.03;;;0.93;;
52974;SDS011;38839;45.186;5.720;2023-09-19T15:26:07;2.67;;;0.82;;
52974;SDS011;38839;45.186;5.720;2023-09-19T15:28:36;1.33;;;0.73;;
52974;SDS011;38839;45.186;5.720;2023-09-19T15:31:06;1.30;;;0.80;;
52974;SDS011;38839;45.186;5.720;2023-09-19T15:33:36;1.00;;;0.70;;
52974;SDS011;38839;45.186;5.720;2023-09-19T15:36:06;2.20;;;0.95;;
52974;SDS011;38839;45.186;5.720;2023-09-19T15:43:58;2.60;;;1.02;;
52974;SDS011;38839;45.186;5.720;2023-09-19T15:46:26;2.80;;;1.05;;
52974;SDS011;38839;45.186;5.720;2023-09-19T15:48:52;1.77;;;1.00;;
52974;SDS011;38839;45.186;5.720;2023-09-19T15:51:21;1.75;;;0.60;;
52974;SDS011;38839;45.186;5.720;2023-09-19T15:53:47;1.77;;;0.90;;
52974;SDS011;38839;45.186;5.720;2023-09-19T15:56:14;0.82;;;0.73;;
52974;SDS011;38839;45.186;5.720;2023-09-19T15:58:42;1.52;;;0.88;;
52974;SDS011;38839;45.186;5.720;2023-09-19T16:01:09;2.30;;;0.90;;
52974;SDS011;38839;45.186;5.720;2023-09-19T16:03:37;1.67;;;0.80;;
52974;SDS011;38839;45.186;5.720;2023-09-19T16:06:11;0.98;;;0.70;;
52974;SDS011;38839;45.186;5.720;2023-09-19T16:08:41;2.08;;;0.93;;
52974;SDS011;38839;45.186;5.720;2023-09-19T16:11:08;1.33;;;1.00;;
52974;SDS011;38839;45.186;5.720;2023-09-19T16:13:34;2.20;;;0.70;;
52974;SDS011;38839;45.186;5.720;2023-09-19T16:16:01;0.82;;;0.82;;
52974;SDS011;38839;45.186;5.720;2023-09-19T16:18:26;2.97;;;1.25;;
52974;SDS011;38839;45.186;5.720;2023-09-19T16:20:51;2.50;;;0.90;;